Hardwick, Vermont
Current Conditions -  °F | °C
As of 4:15 AM on Monday 24 Nov 2014 (Local Time) from KCDA Reporting Station
Broken Clouds Broken Clouds  
Wind Chill: 41°   Ceiling: 2700
Heat Index: 41°   Visibility: 10mi
Dew Point: 34°   Wind: 0mph
Humidity: 78%   Direction: NA
Pressure: 29.89"   Gusts: NA
Location:  44.5°N, 72.37°W
Report Text: KCDA 240915Z AUTO 00000KT 10SM BKN027 05/01 A2989 RMK AO2 T00490013
Loading
Personal Weather Stations






























Interactive Weather Map New forecast layout! Learn more

10-Day Weather Forecast

Advertisements
Track Severe Weather on mobile